sensor_id;sensor_type;location;lat;lon;timestamp;P1;durP1;ratioP1;P2;durP2;ratioP2
14837;SDS011;7510;59.296;18.106;2022-11-15T00:00:49;1.33;;;0.70;;
14837;SDS011;7510;59.296;18.106;2022-11-15T00:03:16;0.93;;;0.93;;
14837;SDS011;7510;59.296;18.106;2022-11-15T00:05:42;1.13;;;1.03;;
14837;SDS011;7510;59.296;18.106;2022-11-15T00:08:08;2.73;;;0.80;;
14837;SDS011;7510;59.296;18.106;2022-11-15T00:10:34;1.30;;;1.20;;
14837;SDS011;7510;59.296;18.106;2022-11-15T00:12:59;1.20;;;1.10;;
14837;SDS011;7510;59.296;18.106;2022-11-15T00:15:25;2.03;;;1.33;;
14837;SDS011;7510;59.296;18.106;2022-11-15T00:17:50;1.13;;;1.03;;
14837;SDS011;7510;59.296;18.106;2022-11-15T00:20:18;1.47;;;1.37;;
14837;SDS011;7510;59.296;18.106;2022-11-15T00:22:44;2.10;;;1.40;;
14837;SDS011;7510;59.296;18.106;2022-11-15T00:25:09;1.90;;;1.80;;
14837;SDS011;7510;59.296;18.106;2022-11-15T00:27:35;1.57;;;1.43;;
14837;SDS011;7510;59.296;18.106;2022-11-15T00:30:00;1.30;;;1.20;;
14837;SDS011;7510;59.296;18.106;2022-11-15T00:32:26;1.73;;;1.37;;
14837;SDS011;7510;59.296;18.106;2022-11-15T00:34:51;1.87;;;1.77;;
14837;SDS011;7510;59.296;18.106;2022-11-15T00:37:17;1.50;;;1.40;;
14837;SDS011;7510;59.296;18.106;2022-11-15T00:39:42;1.60;;;1.50;;
14837;SDS011;7510;59.296;18.106;2022-11-15T00:42:08;1.33;;;1.20;;
14837;SDS011;7510;59.296;18.106;2022-11-15T00:44:33;1.97;;;1.30;;
14837;SDS011;7510;59.296;18.106;2022-11-15T00:46:58;2.83;;;1.47;;
14837;SDS011;7510;59.296;18.106;2022-11-15T00:49:24;1.53;;;1.27;;
14837;SDS011;7510;59.296;18.106;2022-11-15T00:51:49;1.50;;;1.40;;
14837;SDS011;7510;59.296;18.106;2022-11-15T00:54:15;1.23;;;1.13;;
14837;SDS011;7510;59.296;18.106;2022-11-15T00:56:40;1.10;;;1.00;;
14837;SDS011;7510;59.296;18.106;2022-11-15T00:59:06;1.20;;;1.10;;
14837;SDS011;7510;59.296;18.106;2022-11-15T01:01:31;1.53;;;1.43;;
14837;SDS011;7510;59.296;18.106;2022-11-15T01:03:57;1.60;;;1.50;;
14837;SDS011;7510;59.296;18.106;2022-11-15T01:06:22;1.80;;;1.70;;
14837;SDS011;7510;59.296;18.106;2022-11-15T01:08:47;1.97;;;1.70;;
14837;SDS011;7510;59.296;18.106;2022-11-15T01:11:13;1.70;;;1.60;;
14837;SDS011;7510;59.296;18.106;2022-11-15T01:13:39;1.50;;;1.40;;
14837;SDS011;7510;59.296;18.106;2022-11-15T01:16:06;2.03;;;1.83;;
14837;SDS011;7510;59.296;18.106;2022-11-15T01:18:37;2.07;;;1.87;;
14837;SDS011;7510;59.296;18.106;2022-11-15T01:21:10;2.13;;;1.93;;
14837;SDS011;7510;59.296;18.106;2022-11-15T01:23:38;2.47;;;1.40;;
14837;SDS011;7510;59.296;18.106;2022-11-15T01:26:05;1.50;;;1.40;;
14837;SDS011;7510;59.296;18.106;2022-11-15T01:28:33;1.30;;;1.20;;
14837;SDS011;7510;59.296;18.106;2022-11-15T01:31:00;1.40;;;1.30;;
14837;SDS011;7510;59.296;18.106;2022-11-15T01:33:27;1.33;;;1.23;;
14837;SDS011;7510;59.296;18.106;2022-11-15T01:35:53;1.40;;;1.30;;
14837;SDS011;7510;59.296;18.106;2022-11-15T01:38:19;1.40;;;1.30;;
14837;SDS011;7510;59.296;18.106;2022-11-15T01:40:45;2.63;;;1.63;;
14837;SDS011;7510;59.296;18.106;2022-11-15T01:43:20;3.90;;;1.60;;
14837;SDS011;7510;59.296;18.106;2022-11-15T01:45:49;1.50;;;1.40;;
14837;SDS011;7510;59.296;18.106;2022-11-15T01:48:20;1.23;;;1.13;;
14837;SDS011;7510;59.296;18.106;2022-11-15T01:50:47;1.10;;;1.03;;
14837;SDS011;7510;59.296;18.106;2022-11-15T01:53:13;1.30;;;1.20;;
14837;SDS011;7510;59.296;18.106;2022-11-15T01:55:40;1.43;;;1.20;;
14837;SDS011;7510;59.296;18.106;2022-11-15T01:58:06;0.70;;;0.70;;
14837;SDS011;7510;59.296;18.106;2022-11-15T02:00:32;0.80;;;0.80;;
14837;SDS011;7510;59.296;18.106;2022-11-15T02:02:58;0.87;;;0.70;;
14837;SDS011;7510;59.296;18.106;2022-11-15T02:05:23;0.73;;;0.73;;
14837;SDS011;7510;59.296;18.106;2022-11-15T02:07:49;0.70;;;0.57;;
14837;SDS011;7510;59.296;18.106;2022-11-15T02:10:19;0.40;;;0.40;;
14837;SDS011;7510;59.296;18.106;2022-11-15T02:12:46;0.83;;;0.60;;
14837;SDS011;7510;59.296;18.106;2022-11-15T02:15:13;1.27;;;0.60;;
14837;SDS011;7510;59.296;18.106;2022-11-15T02:26:52;1.60;;;1.30;;
14837;SDS011;7510;59.296;18.106;2022-11-15T02:32:35;2.47;;;1.60;;
14837;SDS011;7510;59.296;18.106;2022-11-15T02:35:15;1.77;;;1.50;;
14837;SDS011;7510;59.296;18.106;2022-11-15T02:37:53;2.40;;;1.80;;
14837;SDS011;7510;59.296;18.106;2022-11-15T02:40:38;1.63;;;1.53;;
14837;SDS011;7510;59.296;18.106;2022-11-15T02:43:17;3.30;;;2.57;;
14837;SDS011;7510;59.296;18.106;2022-11-15T02:46:18;2.20;;;1.80;;
14837;SDS011;7510;59.296;18.106;2022-11-15T02:49:09;2.63;;;2.13;;
14837;SDS011;7510;59.296;18.106;2022-11-15T02:51:36;2.40;;;2.20;;
14837;SDS011;7510;59.296;18.106;2022-11-15T02:54:02;2.97;;;2.30;;
14837;SDS011;7510;59.296;18.106;2022-11-15T02:56:27;5.17;;;3.20;;
14837;SDS011;7510;59.296;18.106;2022-11-15T03:07:18;3.47;;;2.77;;
14837;SDS011;7510;59.296;18.106;2022-11-15T03:12:48;3.13;;;2.17;;
14837;SDS011;7510;59.296;18.106;2022-11-15T03:15:42;4.67;;;2.50;;
14837;SDS011;7510;59.296;18.106;2022-11-15T03:18:22;2.70;;;2.17;;
14837;SDS011;7510;59.296;18.106;2022-11-15T03:20:55;2.90;;;1.47;;
14837;SDS011;7510;59.296;18.106;2022-11-15T03:23:24;1.70;;;1.60;;
14837;SDS011;7510;59.296;18.106;2022-11-15T03:25:53;2.70;;;1.60;;
14837;SDS011;7510;59.296;18.106;2022-11-15T03:28:25;1.43;;;1.33;;
14837;SDS011;7510;59.296;18.106;2022-11-15T03:30:57;1.27;;;1.20;;
14837;SDS011;7510;59.296;18.106;2022-11-15T03:33:26;1.80;;;1.40;;
14837;SDS011;7510;59.296;18.106;2022-11-15T03:35:53;1.40;;;1.30;;
14837;SDS011;7510;59.296;18.106;2022-11-15T03:38:24;1.07;;;1.00;;
14837;SDS011;7510;59.296;18.106;2022-11-15T03:40:54;1.27;;;0.97;;
14837;SDS011;7510;59.296;18.106;2022-11-15T03:43:36;1.30;;;1.20;;
14837;SDS011;7510;59.296;18.106;2022-11-15T03:46:20;2.10;;;1.90;;
14837;SDS011;7510;59.296;18.106;2022-11-15T03:49:03;2.20;;;1.30;;
14837;SDS011;7510;59.296;18.106;2022-11-15T03:51:36;1.63;;;1.40;;
14837;SDS011;7510;59.296;18.106;2022-11-15T03:54:03;1.90;;;1.63;;
14837;SDS011;7510;59.296;18.106;2022-11-15T03:56:29;1.33;;;1.10;;
14837;SDS011;7510;59.296;18.106;2022-11-15T03:58:55;3.17;;;1.70;;
14837;SDS011;7510;59.296;18.106;2022-11-15T04:01:20;1.93;;;1.80;;
14837;SDS011;7510;59.296;18.106;2022-11-15T04:03:46;2.77;;;2.10;;
14837;SDS011;7510;59.296;18.106;2022-11-15T04:06:11;3.43;;;1.80;;
14837;SDS011;7510;59.296;18.106;2022-11-15T04:08:37;3.07;;;2.10;;
14837;SDS011;7510;59.296;18.106;2022-11-15T04:11:02;1.60;;;1.50;;
14837;SDS011;7510;59.296;18.106;2022-11-15T04:13:28;2.90;;;1.53;;
14837;SDS011;7510;59.296;18.106;2022-11-15T04:15:53;1.73;;;1.60;;
14837;SDS011;7510;59.296;18.106;2022-11-15T04:18:19;1.97;;;1.67;;
14837;SDS011;7510;59.296;18.106;2022-11-15T04:20:44;1.73;;;1.63;;
14837;SDS011;7510;59.296;18.106;2022-11-15T04:23:28;1.90;;;1.70;;
14837;SDS011;7510;59.296;18.106;2022-11-15T04:26:16;2.00;;;1.80;;
14837;SDS011;7510;59.296;18.106;2022-11-15T04:28:44;2.07;;;1.87;;
14837;SDS011;7510;59.296;18.106;2022-11-15T04:31:28;1.77;;;1.37;;
14837;SDS011;7510;59.296;18.106;2022-11-15T04:33:54;1.73;;;1.63;;
14837;SDS011;7510;59.296;18.106;2022-11-15T04:36:20;1.70;;;1.53;;
14837;SDS011;7510;59.296;18.106;2022-11-15T04:39:04;2.43;;;1.70;;
14837;SDS011;7510;59.296;18.106;2022-11-15T04:41:30;1.67;;;1.57;;
14837;SDS011;7510;59.296;18.106;2022-11-15T04:43:55;1.87;;;1.50;;
14837;SDS011;7510;59.296;18.106;2022-11-15T04:46:21;2.00;;;1.80;;
14837;SDS011;7510;59.296;18.106;2022-11-15T04:48:47;2.17;;;1.77;;
14837;SDS011;7510;59.296;18.106;2022-11-15T04:51:13;1.90;;;1.40;;
14837;SDS011;7510;59.296;18.106;2022-11-15T04:53:38;1.80;;;1.70;;
14837;SDS011;7510;59.296;18.106;2022-11-15T04:56:03;3.23;;;1.80;;
14837;SDS011;7510;59.296;18.106;2022-11-15T04:58:29;3.77;;;1.80;;
14837;SDS011;7510;59.296;18.106;2022-11-15T05:00:54;2.73;;;2.23;;
14837;SDS011;7510;59.296;18.106;2022-11-15T05:03:20;2.20;;;1.93;;
14837;SDS011;7510;59.296;18.106;2022-11-15T05:06:04;4.17;;;2.10;;
14837;SDS011;7510;59.296;18.106;2022-11-15T05:08:31;2.43;;;1.83;;
14837;SDS011;7510;59.296;18.106;2022-11-15T05:10:57;2.50;;;2.10;;
14837;SDS011;7510;59.296;18.106;2022-11-15T05:13:22;2.40;;;1.90;;
14837;SDS011;7510;59.296;18.106;2022-11-15T05:15:48;3.13;;;2.27;;
14837;SDS011;7510;59.296;18.106;2022-11-15T05:18:13;2.80;;;2.30;;
14837;SDS011;7510;59.296;18.106;2022-11-15T05:20:39;3.03;;;2.60;;
14837;SDS011;7510;59.296;18.106;2022-11-15T05:23:04;4.37;;;2.47;;
14837;SDS011;7510;59.296;18.106;2022-11-15T05:25:30;4.57;;;2.50;;
14837;SDS011;7510;59.296;18.106;2022-11-15T05:27:55;2.80;;;2.33;;
14837;SDS011;7510;59.296;18.106;2022-11-15T05:30:21;6.17;;;2.47;;
14837;SDS011;7510;59.296;18.106;2022-11-15T05:32:46;4.23;;;2.63;;
14837;SDS011;7510;59.296;18.106;2022-11-15T05:35:13;6.23;;;3.13;;
14837;SDS011;7510;59.296;18.106;2022-11-15T05:37:47;3.97;;;2.43;;
14837;SDS011;7510;59.296;18.106;2022-11-15T05:40:13;8.40;;;2.60;;
14837;SDS011;7510;59.296;18.106;2022-11-15T05:42:39;5.13;;;2.30;;
14837;SDS011;7510;59.296;18.106;2022-11-15T05:45:05;2.60;;;2.23;;
14837;SDS011;7510;59.296;18.106;2022-11-15T05:47:34;4.00;;;1.93;;
14837;SDS011;7510;59.296;18.106;2022-11-15T05:50:02;4.00;;;1.93;;
14837;SDS011;7510;59.296;18.106;2022-11-15T05:52:28;2.03;;;1.57;;
14837;SDS011;7510;59.296;18.106;2022-11-15T05:54:59;2.43;;;1.80;;
14837;SDS011;7510;59.296;18.106;2022-11-15T05:57:24;4.70;;;2.00;;
14837;SDS011;7510;59.296;18.106;2022-11-15T05:59:50;2.70;;;1.80;;
14837;SDS011;7510;59.296;18.106;2022-11-15T06:02:16;4.33;;;1.80;;
14837;SDS011;7510;59.296;18.106;2022-11-15T06:04:41;1.70;;;1.23;;
14837;SDS011;7510;59.296;18.106;2022-11-15T06:07:07;4.23;;;1.47;;
14837;SDS011;7510;59.296;18.106;2022-11-15T06:09:32;3.20;;;1.40;;
14837;SDS011;7510;59.296;18.106;2022-11-15T06:11:58;2.40;;;1.00;;
14837;SDS011;7510;59.296;18.106;2022-11-15T06:14:23;3.47;;;1.07;;
14837;SDS011;7510;59.296;18.106;2022-11-15T06:16:49;3.07;;;1.37;;
14837;SDS011;7510;59.296;18.106;2022-11-15T06:19:14;1.07;;;0.97;;
14837;SDS011;7510;59.296;18.106;2022-11-15T06:21:40;1.67;;;1.13;;
14837;SDS011;7510;59.296;18.106;2022-11-15T06:24:06;6.00;;;1.20;;
14837;SDS011;7510;59.296;18.106;2022-11-15T06:26:32;0.87;;;0.70;;
14837;SDS011;7510;59.296;18.106;2022-11-15T06:28:57;4.07;;;1.27;;
14837;SDS011;7510;59.296;18.106;2022-11-15T06:31:23;5.07;;;1.50;;
14837;SDS011;7510;59.296;18.106;2022-11-15T06:33:48;2.50;;;1.10;;
14837;SDS011;7510;59.296;18.106;2022-11-15T06:36:14;1.30;;;0.90;;
14837;SDS011;7510;59.296;18.106;2022-11-15T06:38:42;2.80;;;1.00;;
14837;SDS011;7510;59.296;18.106;2022-11-15T06:41:09;0.60;;;0.60;;
14837;SDS011;7510;59.296;18.106;2022-11-15T06:43:37;2.67;;;1.07;;
14837;SDS011;7510;59.296;18.106;2022-11-15T06:46:04;2.17;;;1.17;;
14837;SDS011;7510;59.296;18.106;2022-11-15T06:48:31;0.90;;;0.80;;
14837;SDS011;7510;59.296;18.106;2022-11-15T06:50:58;1.27;;;0.90;;
14837;SDS011;7510;59.296;18.106;2022-11-15T06:53:24;1.20;;;0.87;;
14837;SDS011;7510;59.296;18.106;2022-11-15T06:55:50;1.77;;;0.90;;
14837;SDS011;7510;59.296;18.106;2022-11-15T06:58:16;2.47;;;1.30;;
14837;SDS011;7510;59.296;18.106;2022-11-15T07:00:42;1.83;;;1.00;;
14837;SDS011;7510;59.296;18.106;2022-11-15T07:03:07;6.90;;;1.40;;
14837;SDS011;7510;59.296;18.106;2022-11-15T07:05:33;4.47;;;1.53;;
14837;SDS011;7510;59.296;18.106;2022-11-15T07:07:59;0.77;;;0.60;;
14837;SDS011;7510;59.296;18.106;2022-11-15T07:10:25;1.67;;;1.03;;
14837;SDS011;7510;59.296;18.106;2022-11-15T07:12:52;3.13;;;0.83;;
14837;SDS011;7510;59.296;18.106;2022-11-15T07:15:18;1.00;;;0.60;;
14837;SDS011;7510;59.296;18.106;2022-11-15T07:17:47;1.93;;;0.83;;
14837;SDS011;7510;59.296;18.106;2022-11-15T07:20:13;4.57;;;0.87;;
14837;SDS011;7510;59.296;18.106;2022-11-15T07:22:42;4.77;;;0.90;;
14837;SDS011;7510;59.296;18.106;2022-11-15T07:25:10;2.23;;;0.80;;
14837;SDS011;7510;59.296;18.106;2022-11-15T07:27:36;1.53;;;0.60;;
14837;SDS011;7510;59.296;18.106;2022-11-15T07:30:02;1.83;;;0.90;;
14837;SDS011;7510;59.296;18.106;2022-11-15T07:32:28;0.77;;;0.63;;
14837;SDS011;7510;59.296;18.106;2022-11-15T07:34:53;2.50;;;0.80;;
14837;SDS011;7510;59.296;18.106;2022-11-15T07:37:19;2.37;;;0.60;;
14837;SDS011;7510;59.296;18.106;2022-11-15T07:39:44;3.03;;;1.00;;
14837;SDS011;7510;59.296;18.106;2022-11-15T07:42:10;3.17;;;1.00;;
14837;SDS011;7510;59.296;18.106;2022-11-15T07:44:54;0.87;;;0.80;;
14837;SDS011;7510;59.296;18.106;2022-11-15T07:47:19;3.80;;;1.00;;
14837;SDS011;7510;59.296;18.106;2022-11-15T07:49:45;1.17;;;0.77;;
14837;SDS011;7510;59.296;18.106;2022-11-15T07:52:11;2.07;;;1.10;;
14837;SDS011;7510;59.296;18.106;2022-11-15T07:54:37;3.30;;;0.90;;
14837;SDS011;7510;59.296;18.106;2022-11-15T07:57:03;3.50;;;1.83;;
14837;SDS011;7510;59.296;18.106;2022-11-15T07:59:28;1.90;;;0.63;;
14837;SDS011;7510;59.296;18.106;2022-11-15T08:01:54;2.77;;;0.93;;
14837;SDS011;7510;59.296;18.106;2022-11-15T08:04:19;1.20;;;0.70;;
14837;SDS011;7510;59.296;18.106;2022-11-15T08:06:45;5.97;;;1.17;;
14837;SDS011;7510;59.296;18.106;2022-11-15T08:09:11;1.53;;;0.90;;
14837;SDS011;7510;59.296;18.106;2022-11-15T08:11:36;2.23;;;0.90;;
14837;SDS011;7510;59.296;18.106;2022-11-15T08:14:02;1.97;;;1.00;;
14837;SDS011;7510;59.296;18.106;2022-11-15T08:16:28;2.80;;;0.80;;
14837;SDS011;7510;59.296;18.106;2022-11-15T08:18:53;7.40;;;1.30;;
14837;SDS011;7510;59.296;18.106;2022-11-15T08:21:19;2.60;;;1.37;;
14837;SDS011;7510;59.296;18.106;2022-11-15T08:23:46;9.03;;;2.00;;
14837;SDS011;7510;59.296;18.106;2022-11-15T08:26:12;1.50;;;0.87;;
14837;SDS011;7510;59.296;18.106;2022-11-15T08:28:38;3.17;;;1.20;;
14837;SDS011;7510;59.296;18.106;2022-11-15T08:31:03;2.97;;;0.90;;
14837;SDS011;7510;59.296;18.106;2022-11-15T08:33:29;3.20;;;0.90;;
14837;SDS011;7510;59.296;18.106;2022-11-15T08:35:56;3.43;;;0.83;;
14837;SDS011;7510;59.296;18.106;2022-11-15T08:38:22;2.80;;;0.77;;
14837;SDS011;7510;59.296;18.106;2022-11-15T08:40:47;4.90;;;1.20;;
14837;SDS011;7510;59.296;18.106;2022-11-15T08:43:13;3.23;;;0.80;;
14837;SDS011;7510;59.296;18.106;2022-11-15T08:45:39;2.67;;;0.90;;
14837;SDS011;7510;59.296;18.106;2022-11-15T08:48:04;1.17;;;0.93;;
14837;SDS011;7510;59.296;18.106;2022-11-15T08:50:30;4.60;;;0.97;;
14837;SDS011;7510;59.296;18.106;2022-11-15T08:52:56;3.87;;;0.70;;
14837;SDS011;7510;59.296;18.106;2022-11-15T08:55:22;1.43;;;1.27;;
14837;SDS011;7510;59.296;18.106;2022-11-15T08:57:47;1.97;;;0.83;;
14837;SDS011;7510;59.296;18.106;2022-11-15T09:00:13;2.30;;;0.80;;
14837;SDS011;7510;59.296;18.106;2022-11-15T09:02:39;4.17;;;1.13;;
14837;SDS011;7510;59.296;18.106;2022-11-15T09:05:05;4.90;;;1.10;;
14837;SDS011;7510;59.296;18.106;2022-11-15T09:07:31;2.93;;;0.70;;
14837;SDS011;7510;59.296;18.106;2022-11-15T09:09:57;3.10;;;1.03;;
14837;SDS011;7510;59.296;18.106;2022-11-15T09:12:23;4.90;;;0.80;;
14837;SDS011;7510;59.296;18.106;2022-11-15T09:14:49;3.03;;;1.00;;
14837;SDS011;7510;59.296;18.106;2022-11-15T09:17:15;1.53;;;0.77;;
14837;SDS011;7510;59.296;18.106;2022-11-15T09:19:40;1.67;;;0.97;;
14837;SDS011;7510;59.296;18.106;2022-11-15T09:22:06;2.57;;;0.80;;
14837;SDS011;7510;59.296;18.106;2022-11-15T09:24:33;0.87;;;0.43;;
14837;SDS011;7510;59.296;18.106;2022-11-15T09:26:59;2.37;;;0.57;;
14837;SDS011;7510;59.296;18.106;2022-11-15T09:29:25;1.83;;;0.77;;
14837;SDS011;7510;59.296;18.106;2022-11-15T09:31:54;3.83;;;0.87;;
14837;SDS011;7510;59.296;18.106;2022-11-15T09:34:19;5.00;;;1.20;;
14837;SDS011;7510;59.296;18.106;2022-11-15T09:36:46;1.33;;;0.80;;
14837;SDS011;7510;59.296;18.106;2022-11-15T09:39:11;3.83;;;1.03;;
14837;SDS011;7510;59.296;18.106;2022-11-15T09:49:41;4.53;;;0.70;;
14837;SDS011;7510;59.296;18.106;2022-11-15T09:52:07;1.93;;;0.53;;
14837;SDS011;7510;59.296;18.106;2022-11-15T09:54:36;1.23;;;0.67;;
14837;SDS011;7510;59.296;18.106;2022-11-15T09:57:11;2.67;;;0.90;;
14837;SDS011;7510;59.296;18.106;2022-11-15T10:02:57;1.57;;;0.97;;
14837;SDS011;7510;59.296;18.106;2022-11-15T10:05:29;3.03;;;1.33;;
14837;SDS011;7510;59.296;18.106;2022-11-15T10:10:36;14.10;;;2.23;;
14837;SDS011;7510;59.296;18.106;2022-11-15T10:13:07;2.20;;;0.70;;
14837;SDS011;7510;59.296;18.106;2022-11-15T10:21:53;0.70;;;0.30;;
14837;SDS011;7510;59.296;18.106;2022-11-15T10:24:35;2.80;;;0.50;;
14837;SDS011;7510;59.296;18.106;2022-11-15T10:27:09;3.00;;;1.43;;
14837;SDS011;7510;59.296;18.106;2022-11-15T10:29:40;3.70;;;0.83;;
14837;SDS011;7510;59.296;18.106;2022-11-15T10:32:09;0.80;;;0.50;;
14837;SDS011;7510;59.296;18.106;2022-11-15T10:34:39;4.00;;;0.60;;
14837;SDS011;7510;59.296;18.106;2022-11-15T10:37:05;1.30;;;0.60;;
14837;SDS011;7510;59.296;18.106;2022-11-15T10:39:30;1.57;;;0.50;;
14837;SDS011;7510;59.296;18.106;2022-11-15T10:41:56;1.80;;;0.70;;
14837;SDS011;7510;59.296;18.106;2022-11-15T10:44:23;5.70;;;0.63;;
14837;SDS011;7510;59.296;18.106;2022-11-15T10:49:30;2.63;;;0.80;;
14837;SDS011;7510;59.296;18.106;2022-11-15T10:54:45;1.60;;;0.63;;
14837;SDS011;7510;59.296;18.106;2022-11-15T10:57:22;1.00;;;0.60;;
14837;SDS011;7510;59.296;18.106;2022-11-15T11:00:00;3.20;;;0.80;;
14837;SDS011;7510;59.296;18.106;2022-11-15T11:05:01;1.83;;;0.60;;
14837;SDS011;7510;59.296;18.106;2022-11-15T11:07:29;2.07;;;1.00;;
14837;SDS011;7510;59.296;18.106;2022-11-15T11:09:57;2.10;;;0.63;;
14837;SDS011;7510;59.296;18.106;2022-11-15T11:12:27;0.73;;;0.70;;
14837;SDS011;7510;59.296;18.106;2022-11-15T11:14:55;3.73;;;0.80;;
14837;SDS011;7510;59.296;18.106;2022-11-15T11:18:06;1.43;;;0.70;;
14837;SDS011;7510;59.296;18.106;2022-11-15T11:20:20;1.67;;;0.60;;
14837;SDS011;7510;59.296;18.106;2022-11-15T11:33:50;2.30;;;0.80;;
14837;SDS011;7510;59.296;18.106;2022-11-15T11:36:56;2.63;;;0.73;;
14837;SDS011;7510;59.296;18.106;2022-11-15T11:39:37;1.80;;;1.10;;
14837;SDS011;7510;59.296;18.106;2022-11-15T11:42:37;1.30;;;1.07;;
14837;SDS011;7510;59.296;18.106;2022-11-15T11:47:40;3.50;;;0.93;;
14837;SDS011;7510;59.296;18.106;2022-11-15T11:50:13;1.93;;;0.80;;
14837;SDS011;7510;59.296;18.106;2022-11-15T11:55:21;5.47;;;1.00;;
14837;SDS011;7510;59.296;18.106;2022-11-15T12:00:46;4.03;;;1.07;;
14837;SDS011;7510;59.296;18.106;2022-11-15T12:06:07;5.27;;;1.10;;
14837;SDS011;7510;59.296;18.106;2022-11-15T12:08:40;0.80;;;0.80;;
14837;SDS011;7510;59.296;18.106;2022-11-15T12:11:10;2.27;;;0.90;;
14837;SDS011;7510;59.296;18.106;2022-11-15T12:13:39;1.10;;;0.70;;
14837;SDS011;7510;59.296;18.106;2022-11-15T12:16:17;1.93;;;1.17;;
14837;SDS011;7510;59.296;18.106;2022-11-15T12:18:50;1.70;;;1.10;;
14837;SDS011;7510;59.296;18.106;2022-11-15T12:24:27;1.93;;;1.07;;
14837;SDS011;7510;59.296;18.106;2022-11-15T12:27:46;1.33;;;1.00;;
14837;SDS011;7510;59.296;18.106;2022-11-15T12:29:56;2.00;;;1.10;;
14837;SDS011;7510;59.296;18.106;2022-11-15T12:34:54;1.00;;;0.60;;
14837;SDS011;7510;59.296;18.106;2022-11-15T12:40:05;3.40;;;1.47;;
14837;SDS011;7510;59.296;18.106;2022-11-15T12:42:57;3.53;;;0.87;;
14837;SDS011;7510;59.296;18.106;2022-11-15T12:45:30;3.03;;;1.20;;
14837;SDS011;7510;59.296;18.106;2022-11-15T12:51:02;1.97;;;1.27;;
14837;SDS011;7510;59.296;18.106;2022-11-15T12:53:29;2.70;;;1.10;;
14837;SDS011;7510;59.296;18.106;2022-11-15T13:11:59;2.97;;;0.87;;
14837;SDS011;7510;59.296;18.106;2022-11-15T13:14:48;1.17;;;0.63;;
14837;SDS011;7510;59.296;18.106;2022-11-15T13:20:32;2.97;;;1.27;;
14837;SDS011;7510;59.296;18.106;2022-11-15T13:22:39;1.87;;;1.00;;
14837;SDS011;7510;59.296;18.106;2022-11-15T13:35:41;2.70;;;1.07;;
14837;SDS011;7510;59.296;18.106;2022-11-15T13:38:34;1.43;;;0.73;;
14837;SDS011;7510;59.296;18.106;2022-11-15T13:41:21;1.20;;;0.77;;
14837;SDS011;7510;59.296;18.106;2022-11-15T13:43:49;4.00;;;0.73;;
14837;SDS011;7510;59.296;18.106;2022-11-15T13:49:13;1.80;;;0.80;;
14837;SDS011;7510;59.296;18.106;2022-11-15T13:56:37;0.97;;;0.43;;
14837;SDS011;7510;59.296;18.106;2022-11-15T14:01:54;3.67;;;1.10;;
14837;SDS011;7510;59.296;18.106;2022-11-15T14:04:22;5.83;;;1.77;;
14837;SDS011;7510;59.296;18.106;2022-11-15T14:06:54;4.13;;;1.20;;
14837;SDS011;7510;59.296;18.106;2022-11-15T14:11:54;2.53;;;0.80;;
14837;SDS011;7510;59.296;18.106;2022-11-15T14:14:22;5.00;;;1.00;;
14837;SDS011;7510;59.296;18.106;2022-11-15T14:16:50;4.43;;;0.70;;
14837;SDS011;7510;59.296;18.106;2022-11-15T14:24:40;1.87;;;0.73;;
14837;SDS011;7510;59.296;18.106;2022-11-15T14:27:26;3.13;;;1.07;;
14837;SDS011;7510;59.296;18.106;2022-11-15T14:29:53;1.50;;;0.60;;
14837;SDS011;7510;59.296;18.106;2022-11-15T14:34:47;1.60;;;0.80;;
14837;SDS011;7510;59.296;18.106;2022-11-15T14:39:45;1.90;;;1.00;;
14837;SDS011;7510;59.296;18.106;2022-11-15T14:42:10;1.13;;;0.93;;
14837;SDS011;7510;59.296;18.106;2022-11-15T14:44:36;1.83;;;0.60;;
14837;SDS011;7510;59.296;18.106;2022-11-15T14:47:01;1.90;;;0.80;;
14837;SDS011;7510;59.296;18.106;2022-11-15T14:49:27;1.90;;;0.90;;
14837;SDS011;7510;59.296;18.106;2022-11-15T14:51:52;4.83;;;1.10;;
14837;SDS011;7510;59.296;18.106;2022-11-15T14:54:17;4.30;;;1.20;;
14837;SDS011;7510;59.296;18.106;2022-11-15T14:56:43;2.27;;;0.80;;
14837;SDS011;7510;59.296;18.106;2022-11-15T14:59:08;1.70;;;0.60;;
14837;SDS011;7510;59.296;18.106;2022-11-15T15:01:34;0.90;;;0.60;;
14837;SDS011;7510;59.296;18.106;2022-11-15T15:03:59;2.80;;;0.80;;
14837;SDS011;7510;59.296;18.106;2022-11-15T15:06:25;0.90;;;0.60;;
14837;SDS011;7510;59.296;18.106;2022-11-15T15:08:51;2.33;;;0.73;;
14837;SDS011;7510;59.296;18.106;2022-11-15T15:11:22;1.23;;;0.50;;
14837;SDS011;7510;59.296;18.106;2022-11-15T15:13:49;3.33;;;1.40;;
14837;SDS011;7510;59.296;18.106;2022-11-15T15:16:15;6.57;;;1.20;;
14837;SDS011;7510;59.296;18.106;2022-11-15T15:18:40;7.70;;;1.07;;
14837;SDS011;7510;59.296;18.106;2022-11-15T15:21:14;2.53;;;1.00;;
14837;SDS011;7510;59.296;18.106;2022-11-15T15:23:45;0.80;;;0.43;;
14837;SDS011;7510;59.296;18.106;2022-11-15T15:26:10;1.33;;;0.63;;
14837;SDS011;7510;59.296;18.106;2022-11-15T15:28:36;1.03;;;0.70;;
14837;SDS011;7510;59.296;18.106;2022-11-15T15:31:03;0.87;;;0.77;;
14837;SDS011;7510;59.296;18.106;2022-11-15T15:33:29;1.20;;;0.80;;
14837;SDS011;7510;59.296;18.106;2022-11-15T15:35:54;1.07;;;0.70;;
14837;SDS011;7510;59.296;18.106;2022-11-15T15:38:19;1.10;;;0.60;;
14837;SDS011;7510;59.296;18.106;2022-11-15T15:40:46;1.03;;;0.87;;
14837;SDS011;7510;59.296;18.106;2022-11-15T15:43:12;3.13;;;0.57;;
14837;SDS011;7510;59.296;18.106;2022-11-15T15:45:38;0.63;;;0.57;;
14837;SDS011;7510;59.296;18.106;2022-11-15T15:48:04;2.60;;;0.77;;
14837;SDS011;7510;59.296;18.106;2022-11-15T15:50:33;1.17;;;1.00;;
14837;SDS011;7510;59.296;18.106;2022-11-15T15:53:00;1.53;;;0.80;;
14837;SDS011;7510;59.296;18.106;2022-11-15T15:55:27;1.13;;;0.90;;
14837;SDS011;7510;59.296;18.106;2022-11-15T15:57:53;2.90;;;1.20;;
14837;SDS011;7510;59.296;18.106;2022-11-15T16:00:20;1.27;;;0.73;;
14837;SDS011;7510;59.296;18.106;2022-11-15T16:02:48;1.10;;;0.80;;
14837;SDS011;7510;59.296;18.106;2022-11-15T16:05:13;2.67;;;1.33;;
14837;SDS011;7510;59.296;18.106;2022-11-15T16:07:40;0.80;;;0.80;;
14837;SDS011;7510;59.296;18.106;2022-11-15T16:10:26;2.83;;;0.90;;
14837;SDS011;7510;59.296;18.106;2022-11-15T16:12:54;1.17;;;0.80;;
14837;SDS011;7510;59.296;18.106;2022-11-15T16:15:22;1.23;;;1.10;;
14837;SDS011;7510;59.296;18.106;2022-11-15T16:17:52;1.70;;;1.10;;
14837;SDS011;7510;59.296;18.106;2022-11-15T16:22:54;1.33;;;1.20;;
14837;SDS011;7510;59.296;18.106;2022-11-15T16:25:19;0.70;;;0.70;;
14837;SDS011;7510;59.296;18.106;2022-11-15T16:27:45;1.40;;;0.97;;
14837;SDS011;7510;59.296;18.106;2022-11-15T16:30:15;0.80;;;0.80;;
14837;SDS011;7510;59.296;18.106;2022-11-15T16:32:42;2.00;;;0.60;;
14837;SDS011;7510;59.296;18.106;2022-11-15T16:35:14;2.67;;;0.80;;
14837;SDS011;7510;59.296;18.106;2022-11-15T16:37:41;2.40;;;1.07;;
14837;SDS011;7510;59.296;18.106;2022-11-15T16:42:54;1.93;;;0.90;;
14837;SDS011;7510;59.296;18.106;2022-11-15T16:45:20;1.70;;;0.80;;
14837;SDS011;7510;59.296;18.106;2022-11-15T16:47:46;4.43;;;0.93;;
14837;SDS011;7510;59.296;18.106;2022-11-15T16:50:33;1.80;;;0.90;;
14837;SDS011;7510;59.296;18.106;2022-11-15T16:53:04;0.90;;;0.77;;
14837;SDS011;7510;59.296;18.106;2022-11-15T16:55:29;3.13;;;1.00;;
14837;SDS011;7510;59.296;18.106;2022-11-15T16:57:55;1.00;;;0.80;;
14837;SDS011;7510;59.296;18.106;2022-11-15T17:00:22;2.80;;;0.83;;
14837;SDS011;7510;59.296;18.106;2022-11-15T17:02:48;1.43;;;0.70;;
14837;SDS011;7510;59.296;18.106;2022-11-15T17:05:16;0.87;;;0.50;;
14837;SDS011;7510;59.296;18.106;2022-11-15T17:07:42;1.07;;;0.57;;
14837;SDS011;7510;59.296;18.106;2022-11-15T17:10:12;1.53;;;0.80;;
14837;SDS011;7510;59.296;18.106;2022-11-15T17:12:38;0.70;;;0.53;;
14837;SDS011;7510;59.296;18.106;2022-11-15T17:15:04;0.63;;;0.30;;
14837;SDS011;7510;59.296;18.106;2022-11-15T17:17:30;1.13;;;0.40;;
14837;SDS011;7510;59.296;18.106;2022-11-15T17:19:56;0.70;;;0.60;;